N1545Y KRAL-KTRK
Flight info
| Callsign | N1545Y |
|---|---|
| Flight time | 2h 12m |
| Altitude | 16000 |
| Route | RAL2 PDZ V186 DARTS V459 LHS GMN EHF FRA POYSN SIGNA |
| Aircraft | BE33/L-BDFGLORY/S |
Departure
| Time | 2026-04-19 19:31 |
|---|---|
| Airport | Riverside Municipal Airport (KRAL) |
Arrival
| Time | 2026-04-19 21:43 |
|---|---|
| Airport | Truckee Tahoe Airport (KTRK) |
| Time | Latitude | Longitude | Altitude | Speed | Heading |
|---|---|---|---|---|---|
| 2026-04-19 19:13 | 33.95121 | -117.44550 | 826 ft | 0 kts | 283° |
| 2026-04-19 19:25 | 33.95134 | -117.44591 | 826 ft | 5 kts | 340° |
| 2026-04-19 19:25 | 33.95159 | -117.44600 | 826 ft | 6 kts | 278° |
| 2026-04-19 19:25 | 33.95185 | -117.44639 | 826 ft | 6 kts | 12° |
| 2026-04-19 19:26 | 33.95190 | -117.44572 | 826 ft | 15 kts | 104° |
| 2026-04-19 19:26 | 33.95158 | -117.44404 | 826 ft | 24 kts | 103° |
| 2026-04-19 19:26 | 33.95119 | -117.44201 | 826 ft | 23 kts | 105° |
| 2026-04-19 19:26 | 33.95084 | -117.44022 | 826 ft | 22 kts | 104° |
| 2026-04-19 19:27 | 33.95046 | -117.43825 | 826 ft | 25 kts | 104° |
| 2026-04-19 19:27 | 33.95006 | -117.43618 | 827 ft | 23 kts | 103° |
| 2026-04-19 19:27 | 33.94999 | -117.43498 | 827 ft | 5 kts | 44° |
| 2026-04-19 19:27 | 33.95002 | -117.43495 | 827 ft | 0 kts | 41° |
| 2026-04-19 19:29 | 33.95017 | -117.43490 | 827 ft | 7 kts | 11° |
| 2026-04-19 19:30 | 33.95058 | -117.43493 | 827 ft | 5 kts | 283° |
| 2026-04-19 19:30 | 33.95122 | -117.43818 | 826 ft | 69 kts | 284° |
| 2026-04-19 19:30 | 33.95260 | -117.44485 | 934 ft | 86 kts | 284° |
| 2026-04-19 19:30 | 33.95398 | -117.45181 | 1189 ft | 83 kts | 279° |
| 2026-04-19 19:31 | 33.95460 | -117.45884 | 1378 ft | 88 kts | 261° |
| 2026-04-19 19:31 | 33.95361 | -117.46648 | 1546 ft | 95 kts | 257° |
| 2026-04-19 19:31 | 33.95256 | -117.47418 | 1783 ft | 93 kts | 262° |
| 2026-04-19 19:31 | 33.95156 | -117.48200 | 2001 ft | 95 kts | 259° |
| 2026-04-19 19:32 | 33.95037 | -117.48982 | 2197 ft | 97 kts | 261° |
| 2026-04-19 19:32 | 33.94733 | -117.49703 | 2410 ft | 97 kts | 222° |
| 2026-04-19 19:32 | 33.94221 | -117.50246 | 2630 ft | 100 kts | 219° |
| 2026-04-19 19:32 | 33.93689 | -117.50817 | 2845 ft | 104 kts | 220° |
| 2026-04-19 19:33 | 33.93149 | -117.51429 | 3064 ft | 108 kts | 221° |
| 2026-04-19 19:33 | 33.92615 | -117.52053 | 3319 ft | 107 kts | 221° |
| 2026-04-19 19:33 | 33.92089 | -117.52673 | 3570 ft | 105 kts | 221° |
| 2026-04-19 19:33 | 33.91715 | -117.53419 | 3807 ft | 107 kts | 257° |
| 2026-04-19 19:34 | 33.91864 | -117.54291 | 4044 ft | 110 kts | 299° |
| 2026-04-19 19:34 | 33.92469 | -117.54843 | 4280 ft | 110 kts | 342° |
| 2026-04-19 19:34 | 33.93220 | -117.54786 | 4514 ft | 107 kts | 25° |
| 2026-04-19 19:34 | 33.93729 | -117.54184 | 4742 ft | 102 kts | 68° |
| 2026-04-19 19:35 | 33.93869 | -117.53390 | 4987 ft | 97 kts | 75° |
| 2026-04-19 19:35 | 33.94290 | -117.52811 | 5257 ft | 94 kts | 24° |
| 2026-04-19 19:35 | 33.94918 | -117.52780 | 5492 ft | 91 kts | 334° |
| 2026-04-19 19:35 | 33.95354 | -117.53255 | 5708 ft | 84 kts | 290° |
| 2026-04-19 19:36 | 33.95585 | -117.53919 | 5861 ft | 89 kts | 281° |
| 2026-04-19 19:36 | 33.95782 | -117.54652 | 6008 ft | 96 kts | 280° |
| 2026-04-19 19:36 | 33.95973 | -117.55454 | 6161 ft | 104 kts | 279° |
| 2026-04-19 19:36 | 33.96167 | -117.56330 | 6317 ft | 112 kts | 278° |
| 2026-04-19 19:37 | 33.96364 | -117.57275 | 6469 ft | 120 kts | 278° |
| 2026-04-19 19:37 | 33.96569 | -117.58289 | 6636 ft | 126 kts | 277° |
| 2026-04-19 19:37 | 33.96773 | -117.59323 | 6811 ft | 129 kts | 278° |
| 2026-04-19 19:37 | 33.96979 | -117.60384 | 6985 ft | 131 kts | 278° |
| 2026-04-19 19:38 | 33.97189 | -117.61468 | 7159 ft | 133 kts | 278° |
| 2026-04-19 19:38 | 33.97398 | -117.62561 | 7332 ft | 135 kts | 277° |
| 2026-04-19 19:38 | 33.97613 | -117.63682 | 7507 ft | 136 kts | 278° |
| 2026-04-19 19:38 | 33.97822 | -117.64784 | 7675 ft | 137 kts | 277° |
| 2026-04-19 19:39 | 33.98032 | -117.65895 | 7842 ft | 138 kts | 277° |
| 2026-04-19 19:39 | 33.98209 | -117.66826 | 7981 ft | 139 kts | 276° |
| 2026-04-19 19:39 | 33.98432 | -117.68002 | 8158 ft | 139 kts | 277° |
| 2026-04-19 19:39 | 33.98648 | -117.69144 | 8330 ft | 140 kts | 277° |
| 2026-04-19 19:40 | 33.98862 | -117.70279 | 8497 ft | 140 kts | 276° |
| 2026-04-19 19:40 | 33.99083 | -117.71435 | 8670 ft | 140 kts | 276° |
| 2026-04-19 19:40 | 33.99297 | -117.72575 | 8838 ft | 140 kts | 276° |
| 2026-04-19 19:40 | 33.99514 | -117.73719 | 9008 ft | 140 kts | 276° |
| 2026-04-19 19:41 | 33.99729 | -117.74866 | 9174 ft | 139 kts | 276° |
| 2026-04-19 19:41 | 33.99954 | -117.76001 | 9336 ft | 140 kts | 280° |
| 2026-04-19 19:41 | 34.00276 | -117.77106 | 9495 ft | 140 kts | 284° |
| 2026-04-19 19:41 | 34.00619 | -117.78212 | 9661 ft | 140 kts | 284° |
| 2026-04-19 19:42 | 34.00961 | -117.79304 | 9825 ft | 139 kts | 284° |
| 2026-04-19 19:42 | 34.01299 | -117.80393 | 9991 ft | 138 kts | 283° |
| 2026-04-19 19:42 | 34.01636 | -117.81482 | 10160 ft | 137 kts | 283° |
| 2026-04-19 19:42 | 34.01967 | -117.82550 | 10328 ft | 136 kts | 283° |
| 2026-04-19 19:43 | 34.02300 | -117.83630 | 10495 ft | 136 kts | 283° |
| 2026-04-19 19:43 | 34.02630 | -117.84699 | 10664 ft | 135 kts | 283° |
| 2026-04-19 19:43 | 34.02955 | -117.85748 | 10832 ft | 134 kts | 282° |
| 2026-04-19 19:43 | 34.03281 | -117.86804 | 10996 ft | 132 kts | 282° |
| 2026-04-19 19:44 | 34.03598 | -117.87836 | 11161 ft | 131 kts | 282° |
| 2026-04-19 19:44 | 34.03918 | -117.88867 | 11322 ft | 130 kts | 281° |
| 2026-04-19 19:44 | 34.04236 | -117.89896 | 11485 ft | 129 kts | 282° |
| 2026-04-19 19:44 | 34.04548 | -117.90913 | 11650 ft | 128 kts | 282° |
| 2026-04-19 19:45 | 34.04854 | -117.91911 | 11819 ft | 126 kts | 282° |
| 2026-04-19 19:45 | 34.05160 | -117.92896 | 11973 ft | 126 kts | 281° |
| 2026-04-19 19:45 | 34.05469 | -117.93914 | 12011 ft | 136 kts | 282° |
| 2026-04-19 19:45 | 34.05652 | -117.94516 | 12017 ft | 142 kts | 283° |
| 2026-04-19 19:46 | 34.06082 | -117.95918 | 12014 ft | 154 kts | 283° |
| 2026-04-19 19:46 | 34.06464 | -117.97146 | 12013 ft | 161 kts | 284° |
| 2026-04-19 19:46 | 34.06862 | -117.98432 | 12012 ft | 165 kts | 284° |
| 2026-04-19 19:46 | 34.07265 | -117.99730 | 12010 ft | 165 kts | 285° |
| 2026-04-19 19:47 | 34.07667 | -118.01028 | 12011 ft | 166 kts | 284° |
| 2026-04-19 19:47 | 34.08071 | -118.02350 | 12010 ft | 166 kts | 284° |
| 2026-04-19 19:47 | 34.08475 | -118.03665 | 12012 ft | 167 kts | 284° |
| 2026-04-19 19:47 | 34.08879 | -118.04986 | 12012 ft | 168 kts | 284° |
| 2026-04-19 19:48 | 34.09287 | -118.06309 | 12012 ft | 169 kts | 284° |
| 2026-04-19 19:48 | 34.09697 | -118.07650 | 12013 ft | 169 kts | 284° |
| 2026-04-19 19:48 | 34.10107 | -118.08980 | 12007 ft | 170 kts | 284° |
| 2026-04-19 19:48 | 34.10514 | -118.10314 | 12003 ft | 169 kts | 284° |
| 2026-04-19 19:49 | 34.10921 | -118.11643 | 12002 ft | 169 kts | 284° |
| 2026-04-19 19:49 | 34.11332 | -118.12983 | 12008 ft | 168 kts | 284° |
| 2026-04-19 19:49 | 34.11740 | -118.14311 | 12010 ft | 168 kts | 284° |
| 2026-04-19 19:49 | 34.12143 | -118.15630 | 12011 ft | 169 kts | 284° |
| 2026-04-19 19:50 | 34.12553 | -118.16970 | 12012 ft | 169 kts | 284° |
| 2026-04-19 19:50 | 34.12962 | -118.18314 | 12012 ft | 170 kts | 284° |
| 2026-04-19 19:50 | 34.13370 | -118.19646 | 12009 ft | 170 kts | 284° |
| 2026-04-19 19:50 | 34.13779 | -118.20988 | 12007 ft | 169 kts | 284° |
| 2026-04-19 19:51 | 34.14187 | -118.22321 | 12013 ft | 169 kts | 284° |
| 2026-04-19 19:51 | 34.14595 | -118.23661 | 12012 ft | 170 kts | 284° |
| 2026-04-19 19:51 | 34.15009 | -118.25019 | 12015 ft | 170 kts | 284° |
| 2026-04-19 19:51 | 34.15435 | -118.26348 | 12004 ft | 172 kts | 292° |
| 2026-04-19 19:52 | 34.16319 | -118.27321 | 12009 ft | 177 kts | 326° |
| 2026-04-19 19:52 | 34.17432 | -118.28018 | 12014 ft | 178 kts | 331° |
| 2026-04-19 19:52 | 34.18542 | -118.28666 | 12017 ft | 178 kts | 332° |
| 2026-04-19 19:52 | 34.19669 | -118.29313 | 12016 ft | 179 kts | 335° |
| 2026-04-19 19:53 | 34.20855 | -118.29751 | 12019 ft | 177 kts | 332° |
| 2026-04-19 19:53 | 34.21952 | -118.30454 | 12013 ft | 177 kts | 328° |
| 2026-04-19 19:53 | 34.23043 | -118.31158 | 12013 ft | 177 kts | 329° |
| 2026-04-19 19:53 | 34.24133 | -118.31835 | 12010 ft | 177 kts | 330° |
| 2026-04-19 19:54 | 34.25225 | -118.32497 | 12012 ft | 176 kts | 330° |
| 2026-04-19 19:54 | 34.26322 | -118.33153 | 12016 ft | 176 kts | 330° |
| 2026-04-19 19:54 | 34.27423 | -118.33803 | 12015 ft | 175 kts | 331° |
| 2026-04-19 19:54 | 34.28529 | -118.34451 | 12015 ft | 176 kts | 332° |
| 2026-04-19 19:55 | 34.29635 | -118.35098 | 12011 ft | 176 kts | 331° |
| 2026-04-19 19:55 | 34.30738 | -118.35741 | 12017 ft | 176 kts | 331° |
| 2026-04-19 19:55 | 34.31853 | -118.36391 | 12011 ft | 177 kts | 331° |
| 2026-04-19 19:55 | 34.32968 | -118.37041 | 12007 ft | 176 kts | 332° |
| 2026-04-19 19:56 | 34.34067 | -118.37682 | 12011 ft | 176 kts | 332° |
| 2026-04-19 19:56 | 34.35172 | -118.38326 | 12014 ft | 176 kts | 332° |
| 2026-04-19 19:56 | 34.36271 | -118.38966 | 12014 ft | 175 kts | 331° |
| 2026-04-19 19:56 | 34.37389 | -118.39617 | 12015 ft | 175 kts | 332° |
| 2026-04-19 19:57 | 34.38479 | -118.40252 | 12014 ft | 176 kts | 331° |
| 2026-04-19 19:57 | 34.39589 | -118.40899 | 12014 ft | 176 kts | 332° |
| 2026-04-19 19:57 | 34.40695 | -118.41544 | 12012 ft | 176 kts | 332° |
| 2026-04-19 19:57 | 34.41852 | -118.41985 | 12016 ft | 175 kts | 338° |
| 2026-04-19 19:58 | 34.42937 | -118.42648 | 12020 ft | 173 kts | 328° |
| 2026-04-19 19:58 | 34.44005 | -118.43344 | 12020 ft | 174 kts | 329° |
| 2026-04-19 19:58 | 34.45072 | -118.44016 | 12018 ft | 175 kts | 329° |
| 2026-04-19 19:58 | 34.46164 | -118.44685 | 12015 ft | 175 kts | 330° |
| 2026-04-19 19:59 | 34.47263 | -118.45345 | 12014 ft | 175 kts | 330° |
| 2026-04-19 19:59 | 34.48366 | -118.46003 | 12012 ft | 176 kts | 331° |
| 2026-04-19 19:59 | 34.49466 | -118.46653 | 12012 ft | 176 kts | 331° |
| 2026-04-19 19:59 | 34.50572 | -118.47304 | 12013 ft | 176 kts | 331° |
| 2026-04-19 20:00 | 34.51681 | -118.47955 | 12014 ft | 176 kts | 331° |
| 2026-04-19 20:00 | 34.52777 | -118.48598 | 12014 ft | 176 kts | 331° |
| 2026-04-19 20:00 | 34.53885 | -118.49248 | 12016 ft | 176 kts | 331° |
| 2026-04-19 20:00 | 34.54995 | -118.49897 | 12017 ft | 177 kts | 331° |
| 2026-04-19 20:01 | 34.56107 | -118.50549 | 12019 ft | 176 kts | 331° |
| 2026-04-19 20:01 | 34.57212 | -118.51198 | 12020 ft | 177 kts | 331° |
| 2026-04-19 20:01 | 34.58315 | -118.51842 | 12021 ft | 176 kts | 331° |
| 2026-04-19 20:01 | 34.59434 | -118.52497 | 12020 ft | 177 kts | 331° |
| 2026-04-19 20:02 | 34.60548 | -118.53151 | 12023 ft | 177 kts | 331° |
| 2026-04-19 20:02 | 34.61664 | -118.53804 | 12019 ft | 178 kts | 331° |
| 2026-04-19 20:02 | 34.62771 | -118.54455 | 12020 ft | 178 kts | 331° |
| 2026-04-19 20:02 | 34.63898 | -118.55115 | 12013 ft | 178 kts | 331° |
| 2026-04-19 20:03 | 34.65019 | -118.55773 | 12017 ft | 177 kts | 332° |
| 2026-04-19 20:03 | 34.66124 | -118.56421 | 12029 ft | 177 kts | 331° |
| 2026-04-19 20:03 | 34.67224 | -118.57068 | 12025 ft | 177 kts | 331° |
| 2026-04-19 20:03 | 34.68243 | -118.57883 | 12028 ft | 171 kts | 304° |
| 2026-04-19 20:04 | 34.68868 | -118.59085 | 12036 ft | 168 kts | 292° |
| 2026-04-19 20:04 | 34.69416 | -118.60337 | 12037 ft | 169 kts | 291° |
| 2026-04-19 20:04 | 34.69964 | -118.61613 | 12029 ft | 170 kts | 291° |
| 2026-04-19 20:04 | 34.70508 | -118.62885 | 12034 ft | 170 kts | 291° |
| 2026-04-19 20:05 | 34.71054 | -118.64164 | 12029 ft | 170 kts | 291° |
| 2026-04-19 20:05 | 34.71604 | -118.65448 | 12033 ft | 170 kts | 291° |
| 2026-04-19 20:05 | 34.72145 | -118.66718 | 12032 ft | 170 kts | 291° |
| 2026-04-19 20:05 | 34.72692 | -118.67999 | 12033 ft | 170 kts | 290° |
| 2026-04-19 20:06 | 34.73233 | -118.69272 | 12039 ft | 169 kts | 291° |
| 2026-04-19 20:06 | 34.73775 | -118.70539 | 12041 ft | 169 kts | 290° |
| 2026-04-19 20:06 | 34.74315 | -118.71812 | 12048 ft | 169 kts | 291° |
| 2026-04-19 20:06 | 34.74856 | -118.73081 | 12045 ft | 170 kts | 291° |
| 2026-04-19 20:07 | 34.75402 | -118.74366 | 12047 ft | 170 kts | 290° |
| 2026-04-19 20:07 | 34.75944 | -118.75641 | 12053 ft | 170 kts | 290° |
| 2026-04-19 20:07 | 34.76484 | -118.76914 | 12059 ft | 170 kts | 291° |
| 2026-04-19 20:07 | 34.77032 | -118.78202 | 12059 ft | 171 kts | 291° |
| 2026-04-19 20:08 | 34.77579 | -118.79488 | 12060 ft | 171 kts | 291° |
| 2026-04-19 20:08 | 34.78121 | -118.80766 | 12060 ft | 172 kts | 291° |
| 2026-04-19 20:08 | 34.78678 | -118.82076 | 12060 ft | 172 kts | 290° |
| 2026-04-19 20:08 | 34.79224 | -118.83364 | 12061 ft | 172 kts | 291° |
| 2026-04-19 20:09 | 34.79776 | -118.84662 | 12059 ft | 172 kts | 290° |
| 2026-04-19 20:09 | 34.80437 | -118.85876 | 12042 ft | 179 kts | 315° |
| 2026-04-19 20:09 | 34.81558 | -118.86523 | 12056 ft | 181 kts | 339° |
| 2026-04-19 20:09 | 34.82782 | -118.86969 | 12055 ft | 181 kts | 342° |
| 2026-04-19 20:10 | 34.83984 | -118.87380 | 12049 ft | 181 kts | 342° |
| 2026-04-19 20:10 | 34.85210 | -118.87799 | 12045 ft | 181 kts | 341° |
| 2026-04-19 20:10 | 34.86427 | -118.88216 | 12038 ft | 181 kts | 341° |
| 2026-04-19 20:10 | 34.87645 | -118.88634 | 12037 ft | 181 kts | 342° |
| 2026-04-19 20:11 | 34.88856 | -118.89051 | 12034 ft | 181 kts | 341° |
| 2026-04-19 20:11 | 34.90078 | -118.89471 | 12025 ft | 181 kts | 341° |
| 2026-04-19 20:11 | 34.91299 | -118.89892 | 12020 ft | 181 kts | 341° |
| 2026-04-19 20:11 | 34.92512 | -118.90310 | 12013 ft | 181 kts | 341° |
| 2026-04-19 20:12 | 34.93718 | -118.90726 | 12011 ft | 181 kts | 341° |
| 2026-04-19 20:12 | 34.94944 | -118.91149 | 12012 ft | 181 kts | 341° |
| 2026-04-19 20:12 | 34.96153 | -118.91566 | 12006 ft | 181 kts | 341° |
| 2026-04-19 20:12 | 34.97368 | -118.91985 | 12000 ft | 181 kts | 341° |
| 2026-04-19 20:13 | 34.98582 | -118.92403 | 11990 ft | 181 kts | 341° |
| 2026-04-19 20:13 | 34.99793 | -118.92822 | 11982 ft | 181 kts | 341° |
| 2026-04-19 20:13 | 35.01008 | -118.93241 | 11982 ft | 181 kts | 341° |
| 2026-04-19 20:13 | 35.02219 | -118.93661 | 11977 ft | 181 kts | 341° |
| 2026-04-19 20:14 | 35.03449 | -118.94087 | 11985 ft | 181 kts | 341° |
| 2026-04-19 20:14 | 35.04658 | -118.94504 | 11979 ft | 181 kts | 341° |
| 2026-04-19 20:14 | 35.05882 | -118.94926 | 11984 ft | 182 kts | 341° |
| 2026-04-19 20:14 | 35.07087 | -118.95345 | 11977 ft | 182 kts | 341° |
| 2026-04-19 20:15 | 35.08315 | -118.95768 | 11967 ft | 182 kts | 341° |
| 2026-04-19 20:15 | 35.09533 | -118.96191 | 11969 ft | 182 kts | 341° |
| 2026-04-19 20:15 | 35.10755 | -118.96613 | 11960 ft | 182 kts | 341° |
| 2026-04-19 20:15 | 35.11982 | -118.97038 | 11956 ft | 181 kts | 341° |
| 2026-04-19 20:16 | 35.13192 | -118.97458 | 11950 ft | 181 kts | 341° |
| 2026-04-19 20:16 | 35.14396 | -118.97875 | 11949 ft | 180 kts | 341° |
| 2026-04-19 20:16 | 35.15604 | -118.98294 | 11953 ft | 179 kts | 341° |
| 2026-04-19 20:16 | 35.16804 | -118.98711 | 11951 ft | 179 kts | 341° |
| 2026-04-19 20:17 | 35.18019 | -118.99133 | 11943 ft | 179 kts | 341° |
| 2026-04-19 20:17 | 35.19216 | -118.99548 | 11950 ft | 179 kts | 341° |
| 2026-04-19 20:17 | 35.20418 | -118.99966 | 11948 ft | 180 kts | 341° |
| 2026-04-19 20:17 | 35.21627 | -119.00386 | 11941 ft | 180 kts | 341° |
| 2026-04-19 20:18 | 35.22824 | -119.00800 | 11940 ft | 180 kts | 341° |
| 2026-04-19 20:18 | 35.24043 | -119.01224 | 11937 ft | 180 kts | 341° |
| 2026-04-19 20:18 | 35.25245 | -119.01642 | 11935 ft | 179 kts | 341° |
| 2026-04-19 20:18 | 35.26449 | -119.02062 | 11939 ft | 179 kts | 341° |
| 2026-04-19 20:19 | 35.27651 | -119.02479 | 11936 ft | 179 kts | 341° |
| 2026-04-19 20:19 | 35.28845 | -119.02895 | 11941 ft | 179 kts | 341° |
| 2026-04-19 20:19 | 35.30059 | -119.03317 | 11956 ft | 180 kts | 341° |
| 2026-04-19 20:19 | 35.31274 | -119.03741 | 11950 ft | 181 kts | 341° |
| 2026-04-19 20:20 | 35.32480 | -119.04160 | 11946 ft | 181 kts | 341° |
| 2026-04-19 20:20 | 35.33698 | -119.04584 | 11947 ft | 181 kts | 341° |
| 2026-04-19 20:20 | 35.34905 | -119.05006 | 11944 ft | 181 kts | 341° |
| 2026-04-19 20:20 | 35.36115 | -119.05426 | 11949 ft | 180 kts | 341° |
| 2026-04-19 20:21 | 35.37336 | -119.05852 | 11949 ft | 181 kts | 341° |
| 2026-04-19 20:21 | 35.38554 | -119.06276 | 11950 ft | 181 kts | 341° |
| 2026-04-19 20:21 | 35.39756 | -119.06696 | 11951 ft | 181 kts | 341° |
| 2026-04-19 20:21 | 35.40974 | -119.07121 | 11951 ft | 181 kts | 341° |
| 2026-04-19 20:22 | 35.42184 | -119.07544 | 11952 ft | 181 kts | 341° |
| 2026-04-19 20:22 | 35.43384 | -119.07964 | 11952 ft | 181 kts | 341° |
| 2026-04-19 20:22 | 35.44606 | -119.08390 | 11953 ft | 181 kts | 342° |
| 2026-04-19 20:22 | 35.45824 | -119.08816 | 11953 ft | 181 kts | 341° |
| 2026-04-19 20:23 | 35.47038 | -119.09240 | 11954 ft | 181 kts | 341° |
| 2026-04-19 20:23 | 35.48248 | -119.09664 | 11954 ft | 181 kts | 341° |
| 2026-04-19 20:23 | 35.49388 | -119.10260 | 11945 ft | 180 kts | 342° |
| 2026-04-19 20:23 | 35.50622 | -119.10577 | 11954 ft | 180 kts | 347° |
| 2026-04-19 20:24 | 35.51849 | -119.10877 | 11954 ft | 181 kts | 346° |
| 2026-04-19 20:24 | 35.53089 | -119.11203 | 11957 ft | 181 kts | 345° |
| 2026-04-19 20:24 | 35.54318 | -119.11546 | 11956 ft | 182 kts | 345° |
| 2026-04-19 20:24 | 35.55563 | -119.11903 | 11953 ft | 182 kts | 344° |
| 2026-04-19 20:25 | 35.56795 | -119.12265 | 11955 ft | 182 kts | 344° |
| 2026-04-19 20:25 | 35.58026 | -119.12630 | 11955 ft | 182 kts | 344° |
| 2026-04-19 20:25 | 35.59260 | -119.12998 | 11952 ft | 182 kts | 344° |
| 2026-04-19 20:25 | 35.60494 | -119.13368 | 11952 ft | 182 kts | 344° |
| 2026-04-19 20:26 | 35.61726 | -119.13741 | 11950 ft | 182 kts | 344° |
| 2026-04-19 20:26 | 35.62958 | -119.14111 | 11953 ft | 182 kts | 344° |
| 2026-04-19 20:26 | 35.64194 | -119.14483 | 11952 ft | 183 kts | 344° |
| 2026-04-19 20:26 | 35.65433 | -119.14858 | 11952 ft | 183 kts | 344° |
| 2026-04-19 20:27 | 35.66670 | -119.15233 | 11950 ft | 183 kts | 344° |
| 2026-04-19 20:27 | 35.67910 | -119.15608 | 11947 ft | 183 kts | 344° |
| 2026-04-19 20:27 | 35.69158 | -119.15985 | 11950 ft | 183 kts | 344° |
| 2026-04-19 20:27 | 35.70390 | -119.16357 | 11952 ft | 183 kts | 344° |
| 2026-04-19 20:28 | 35.71631 | -119.16734 | 11950 ft | 183 kts | 344° |
| 2026-04-19 20:28 | 35.72874 | -119.17110 | 11946 ft | 183 kts | 344° |
| 2026-04-19 20:28 | 35.74122 | -119.17489 | 11951 ft | 183 kts | 344° |
| 2026-04-19 20:28 | 35.75359 | -119.17863 | 11949 ft | 183 kts | 344° |
| 2026-04-19 20:29 | 35.76589 | -119.18237 | 11948 ft | 183 kts | 344° |
| 2026-04-19 20:29 | 35.77842 | -119.18617 | 11948 ft | 183 kts | 344° |
| 2026-04-19 20:29 | 35.79079 | -119.18992 | 11941 ft | 183 kts | 344° |
| 2026-04-19 20:30 | 35.81548 | -119.19741 | 11940 ft | 182 kts | 344° |
| 2026-04-19 20:30 | 35.82798 | -119.20120 | 11932 ft | 182 kts | 344° |
| 2026-04-19 20:30 | 35.84010 | -119.20488 | 11937 ft | 181 kts | 344° |
| 2026-04-19 20:30 | 35.85235 | -119.20861 | 11957 ft | 182 kts | 344° |
| 2026-04-19 20:31 | 35.86481 | -119.21240 | 11945 ft | 182 kts | 344° |
| 2026-04-19 20:31 | 35.87724 | -119.21617 | 11942 ft | 182 kts | 344° |
| 2026-04-19 20:31 | 35.88951 | -119.21992 | 11933 ft | 182 kts | 344° |
| 2026-04-19 20:31 | 35.90181 | -119.22366 | 11932 ft | 181 kts | 344° |
| 2026-04-19 20:32 | 35.91408 | -119.22739 | 11937 ft | 180 kts | 344° |
| 2026-04-19 20:32 | 35.92627 | -119.23109 | 11940 ft | 181 kts | 343° |
| 2026-04-19 20:32 | 35.93857 | -119.23484 | 11941 ft | 181 kts | 343° |
| 2026-04-19 20:32 | 35.95082 | -119.23858 | 11937 ft | 181 kts | 343° |
| 2026-04-19 20:33 | 35.96327 | -119.24237 | 11938 ft | 181 kts | 344° |
| 2026-04-19 20:33 | 35.97552 | -119.24612 | 11938 ft | 181 kts | 343° |
| 2026-04-19 20:33 | 35.98778 | -119.24985 | 11939 ft | 182 kts | 344° |
| 2026-04-19 20:33 | 36.00003 | -119.25358 | 11934 ft | 182 kts | 344° |
| 2026-04-19 20:34 | 36.01243 | -119.25737 | 11937 ft | 182 kts | 344° |
| 2026-04-19 20:34 | 36.02484 | -119.26116 | 11940 ft | 182 kts | 344° |
| 2026-04-19 20:34 | 36.03682 | -119.26481 | 11938 ft | 182 kts | 344° |
| 2026-04-19 20:34 | 36.04910 | -119.26857 | 11932 ft | 182 kts | 344° |
| 2026-04-19 20:35 | 36.06030 | -119.27199 | 11940 ft | 182 kts | 344° |
| 2026-04-19 20:35 | 36.07185 | -119.27550 | 11940 ft | 182 kts | 344° |
| 2026-04-19 20:35 | 36.08338 | -119.27905 | 11942 ft | 182 kts | 344° |
| 2026-04-19 20:35 | 36.09448 | -119.28244 | 11954 ft | 182 kts | 344° |
| 2026-04-19 20:36 | 36.10695 | -119.28625 | 11933 ft | 183 kts | 344° |
| 2026-04-19 20:36 | 36.11934 | -119.29004 | 11937 ft | 183 kts | 344° |
| 2026-04-19 20:36 | 36.13177 | -119.29385 | 11933 ft | 183 kts | 344° |
| 2026-04-19 20:36 | 36.13594 | -119.29512 | 11933 ft | 182 kts | 344° |
| 2026-04-19 20:37 | 36.15665 | -119.30146 | 11930 ft | 181 kts | 344° |
| 2026-04-19 20:37 | 36.16885 | -119.30521 | 11939 ft | 181 kts | 344° |
| 2026-04-19 20:37 | 36.18051 | -119.30878 | 11944 ft | 180 kts | 344° |
| 2026-04-19 20:37 | 36.19270 | -119.31252 | 11948 ft | 181 kts | 344° |
| 2026-04-19 20:38 | 36.20501 | -119.31629 | 11959 ft | 182 kts | 344° |
| 2026-04-19 20:38 | 36.21720 | -119.32003 | 11960 ft | 182 kts | 344° |
| 2026-04-19 20:38 | 36.22969 | -119.32387 | 11969 ft | 184 kts | 344° |
| 2026-04-19 20:38 | 36.24233 | -119.32775 | 11967 ft | 185 kts | 344° |
| 2026-04-19 20:39 | 36.25481 | -119.33158 | 11948 ft | 186 kts | 344° |
| 2026-04-19 20:39 | 36.26748 | -119.33546 | 11959 ft | 185 kts | 344° |
| 2026-04-19 20:39 | 36.28007 | -119.33933 | 11943 ft | 184 kts | 344° |
| 2026-04-19 20:39 | 36.29251 | -119.34315 | 11958 ft | 184 kts | 344° |
| 2026-04-19 20:40 | 36.30508 | -119.34703 | 11956 ft | 184 kts | 344° |
| 2026-04-19 20:40 | 36.31758 | -119.35087 | 11955 ft | 184 kts | 344° |
| 2026-04-19 20:40 | 36.33022 | -119.35477 | 11959 ft | 184 kts | 344° |
| 2026-04-19 20:40 | 36.34258 | -119.35857 | 11960 ft | 184 kts | 344° |
| 2026-04-19 20:41 | 36.35509 | -119.36241 | 11961 ft | 184 kts | 344° |
| 2026-04-19 20:41 | 36.36765 | -119.36628 | 11958 ft | 184 kts | 344° |
| 2026-04-19 20:41 | 36.38009 | -119.37012 | 11956 ft | 184 kts | 344° |
| 2026-04-19 20:41 | 36.39250 | -119.37395 | 11957 ft | 184 kts | 344° |
| 2026-04-19 20:42 | 36.40486 | -119.37775 | 11956 ft | 184 kts | 344° |
| 2026-04-19 20:42 | 36.41730 | -119.38159 | 11955 ft | 184 kts | 344° |
| 2026-04-19 20:42 | 36.42984 | -119.38546 | 11955 ft | 183 kts | 344° |
| 2026-04-19 20:42 | 36.44215 | -119.38926 | 11938 ft | 183 kts | 344° |
| 2026-04-19 20:43 | 36.45452 | -119.39308 | 11940 ft | 182 kts | 345° |
| 2026-04-19 20:43 | 36.46681 | -119.39687 | 11952 ft | 181 kts | 344° |
| 2026-04-19 20:43 | 36.47921 | -119.40070 | 11955 ft | 182 kts | 344° |
| 2026-04-19 20:43 | 36.49159 | -119.40453 | 11946 ft | 181 kts | 344° |
| 2026-04-19 20:44 | 36.50386 | -119.40831 | 11948 ft | 182 kts | 344° |
| 2026-04-19 20:44 | 36.51612 | -119.41212 | 11946 ft | 181 kts | 344° |
| 2026-04-19 20:44 | 36.52835 | -119.41589 | 11946 ft | 181 kts | 344° |
| 2026-04-19 20:44 | 36.54066 | -119.41971 | 11945 ft | 181 kts | 344° |
| 2026-04-19 20:45 | 36.55288 | -119.42348 | 11962 ft | 181 kts | 344° |
| 2026-04-19 20:45 | 36.56528 | -119.42734 | 11966 ft | 182 kts | 344° |
| 2026-04-19 20:45 | 36.57760 | -119.43115 | 11958 ft | 182 kts | 344° |
| 2026-04-19 20:45 | 36.58991 | -119.43496 | 11975 ft | 182 kts | 344° |
| 2026-04-19 20:46 | 36.60247 | -119.43885 | 11980 ft | 184 kts | 344° |
| 2026-04-19 20:46 | 36.61501 | -119.44275 | 11967 ft | 186 kts | 344° |
| 2026-04-19 20:46 | 36.62763 | -119.44665 | 11958 ft | 186 kts | 344° |
| 2026-04-19 20:46 | 36.64024 | -119.45056 | 11963 ft | 185 kts | 344° |
| 2026-04-19 20:47 | 36.65295 | -119.45451 | 11968 ft | 185 kts | 344° |
| 2026-04-19 20:47 | 36.66550 | -119.45841 | 11961 ft | 186 kts | 344° |
| 2026-04-19 20:47 | 36.67733 | -119.46207 | 11958 ft | 186 kts | 344° |
| 2026-04-19 20:47 | 36.68986 | -119.46597 | 11968 ft | 185 kts | 344° |
| 2026-04-19 20:48 | 36.70255 | -119.46991 | 11966 ft | 186 kts | 344° |
| 2026-04-19 20:48 | 36.71469 | -119.47369 | 11974 ft | 186 kts | 344° |
| 2026-04-19 20:48 | 36.72731 | -119.47761 | 11954 ft | 187 kts | 344° |
| 2026-04-19 20:48 | 36.73993 | -119.48154 | 11977 ft | 186 kts | 344° |
| 2026-04-19 20:49 | 36.75259 | -119.48549 | 11971 ft | 186 kts | 345° |
| 2026-04-19 20:49 | 36.76516 | -119.48939 | 11947 ft | 186 kts | 344° |
| 2026-04-19 20:49 | 36.77763 | -119.49327 | 11964 ft | 185 kts | 344° |
| 2026-04-19 20:49 | 36.79010 | -119.49716 | 11956 ft | 185 kts | 344° |
| 2026-04-19 20:50 | 36.80268 | -119.50108 | 11964 ft | 184 kts | 344° |
| 2026-04-19 20:50 | 36.81493 | -119.50491 | 11973 ft | 184 kts | 344° |
| 2026-04-19 20:50 | 36.82758 | -119.50884 | 11966 ft | 184 kts | 345° |
| 2026-04-19 20:50 | 36.83997 | -119.51270 | 11978 ft | 184 kts | 344° |
| 2026-04-19 20:51 | 36.85250 | -119.51662 | 11981 ft | 184 kts | 344° |
| 2026-04-19 20:51 | 36.86491 | -119.52050 | 11977 ft | 183 kts | 345° |
| 2026-04-19 20:51 | 36.87730 | -119.52437 | 11993 ft | 184 kts | 345° |
| 2026-04-19 20:51 | 36.88989 | -119.52829 | 11978 ft | 186 kts | 344° |
| 2026-04-19 20:52 | 36.90249 | -119.53223 | 11978 ft | 185 kts | 345° |
| 2026-04-19 20:52 | 36.91493 | -119.53612 | 11984 ft | 184 kts | 344° |
| 2026-04-19 20:52 | 36.92736 | -119.54000 | 11992 ft | 184 kts | 344° |
| 2026-04-19 20:52 | 36.93969 | -119.54387 | 11996 ft | 184 kts | 344° |
| 2026-04-19 20:53 | 36.95216 | -119.54775 | 11985 ft | 185 kts | 344° |
| 2026-04-19 20:53 | 36.96470 | -119.55168 | 11995 ft | 184 kts | 344° |
| 2026-04-19 20:53 | 36.97714 | -119.55559 | 11995 ft | 185 kts | 345° |
| 2026-04-19 20:53 | 36.98968 | -119.55952 | 11990 ft | 184 kts | 344° |
| 2026-04-19 20:54 | 37.00209 | -119.56340 | 11994 ft | 183 kts | 344° |
| 2026-04-19 20:54 | 37.01447 | -119.56728 | 12003 ft | 183 kts | 345° |
| 2026-04-19 20:54 | 37.02687 | -119.57117 | 12009 ft | 182 kts | 345° |
| 2026-04-19 20:54 | 37.03912 | -119.57500 | 12002 ft | 182 kts | 344° |
| 2026-04-19 20:55 | 37.05151 | -119.57889 | 12011 ft | 183 kts | 344° |
| 2026-04-19 20:55 | 37.06395 | -119.58279 | 12013 ft | 184 kts | 344° |
| 2026-04-19 20:55 | 37.07635 | -119.58669 | 12029 ft | 185 kts | 344° |
| 2026-04-19 20:55 | 37.08890 | -119.59063 | 12005 ft | 185 kts | 344° |
| 2026-04-19 20:56 | 37.10146 | -119.59457 | 12011 ft | 185 kts | 344° |
| 2026-04-19 20:56 | 37.11432 | -119.59604 | 11996 ft | 183 kts | 348° |
| 2026-04-19 20:56 | 37.12631 | -119.60123 | 12002 ft | 181 kts | 336° |
| 2026-04-19 20:56 | 37.13802 | -119.60690 | 12006 ft | 180 kts | 337° |
| 2026-04-19 20:57 | 37.14981 | -119.61226 | 12014 ft | 180 kts | 338° |
| 2026-04-19 20:57 | 37.16161 | -119.61736 | 12030 ft | 181 kts | 339° |
| 2026-04-19 20:57 | 37.17380 | -119.62243 | 12021 ft | 183 kts | 339° |
| 2026-04-19 20:57 | 37.18594 | -119.62738 | 12009 ft | 184 kts | 340° |
| 2026-04-19 20:58 | 37.19814 | -119.63230 | 12020 ft | 183 kts | 340° |
| 2026-04-19 20:58 | 37.21044 | -119.63720 | 12019 ft | 185 kts | 340° |
| 2026-04-19 20:58 | 37.22261 | -119.64205 | 12006 ft | 184 kts | 340° |
| 2026-04-19 20:58 | 37.23488 | -119.64691 | 12024 ft | 184 kts | 340° |
| 2026-04-19 20:59 | 37.24719 | -119.65178 | 12005 ft | 185 kts | 340° |
| 2026-04-19 20:59 | 37.25945 | -119.65662 | 12006 ft | 183 kts | 340° |
| 2026-04-19 20:59 | 37.27173 | -119.66148 | 12029 ft | 181 kts | 340° |
| 2026-04-19 20:59 | 37.28373 | -119.66624 | 12045 ft | 182 kts | 340° |
| 2026-04-19 21:00 | 37.29607 | -119.67111 | 12043 ft | 183 kts | 340° |
| 2026-04-19 21:00 | 37.30819 | -119.67590 | 12051 ft | 184 kts | 339° |
| 2026-04-19 21:00 | 37.32040 | -119.68076 | 12053 ft | 184 kts | 340° |
| 2026-04-19 21:00 | 37.33273 | -119.68564 | 12063 ft | 185 kts | 340° |
| 2026-04-19 21:01 | 37.34510 | -119.69052 | 12067 ft | 186 kts | 340° |
| 2026-04-19 21:01 | 37.35766 | -119.69550 | 12051 ft | 188 kts | 339° |
| 2026-04-19 21:01 | 37.37013 | -119.70045 | 12051 ft | 186 kts | 340° |
| 2026-04-19 21:01 | 37.38248 | -119.70534 | 12053 ft | 185 kts | 339° |
| 2026-04-19 21:02 | 37.39473 | -119.71020 | 12086 ft | 184 kts | 339° |
| 2026-04-19 21:02 | 37.40700 | -119.71507 | 12076 ft | 186 kts | 340° |
| 2026-04-19 21:02 | 37.41925 | -119.71993 | 12082 ft | 186 kts | 340° |
| 2026-04-19 21:02 | 37.43154 | -119.72482 | 12077 ft | 187 kts | 340° |
| 2026-04-19 21:03 | 37.44405 | -119.72977 | 12081 ft | 187 kts | 339° |
| 2026-04-19 21:03 | 37.45647 | -119.73471 | 12075 ft | 187 kts | 339° |
| 2026-04-19 21:03 | 37.46883 | -119.73964 | 12080 ft | 186 kts | 339° |
| 2026-04-19 21:03 | 37.48120 | -119.74455 | 12083 ft | 185 kts | 339° |
| 2026-04-19 21:04 | 37.49353 | -119.74945 | 12096 ft | 185 kts | 339° |
| 2026-04-19 21:04 | 37.50586 | -119.75436 | 12092 ft | 185 kts | 339° |
| 2026-04-19 21:04 | 37.51812 | -119.75922 | 12098 ft | 185 kts | 339° |
| 2026-04-19 21:04 | 37.53058 | -119.76419 | 12097 ft | 185 kts | 339° |
| 2026-04-19 21:05 | 37.54273 | -119.76904 | 12105 ft | 184 kts | 340° |
| 2026-04-19 21:05 | 37.55505 | -119.77394 | 12101 ft | 185 kts | 339° |
| 2026-04-19 21:05 | 37.56735 | -119.77884 | 12106 ft | 185 kts | 339° |
| 2026-04-19 21:05 | 37.57888 | -119.78346 | 12099 ft | 186 kts | 340° |
| 2026-04-19 21:06 | 37.58975 | -119.78778 | 12096 ft | 186 kts | 339° |
| 2026-04-19 21:06 | 37.60146 | -119.79244 | 12093 ft | 187 kts | 339° |
| 2026-04-19 21:06 | 37.61318 | -119.79713 | 12092 ft | 187 kts | 339° |
| 2026-04-19 21:06 | 37.62566 | -119.80211 | 12086 ft | 186 kts | 339° |
| 2026-04-19 21:07 | 37.63800 | -119.80704 | 12089 ft | 186 kts | 340° |
| 2026-04-19 21:07 | 37.65039 | -119.81199 | 12097 ft | 185 kts | 339° |
| 2026-04-19 21:07 | 37.66260 | -119.81686 | 12103 ft | 185 kts | 339° |
| 2026-04-19 21:07 | 37.67501 | -119.82182 | 12098 ft | 186 kts | 339° |
| 2026-04-19 21:08 | 37.68731 | -119.82676 | 12101 ft | 186 kts | 340° |
| 2026-04-19 21:08 | 37.69968 | -119.83170 | 12091 ft | 186 kts | 339° |
| 2026-04-19 21:08 | 37.71189 | -119.83658 | 12097 ft | 185 kts | 339° |
| 2026-04-19 21:08 | 37.72425 | -119.84152 | 12100 ft | 185 kts | 339° |
| 2026-04-19 21:09 | 37.73658 | -119.84647 | 12104 ft | 185 kts | 340° |
| 2026-04-19 21:09 | 37.74883 | -119.85137 | 12099 ft | 185 kts | 339° |
| 2026-04-19 21:09 | 37.76116 | -119.85631 | 12101 ft | 185 kts | 339° |
| 2026-04-19 21:09 | 37.77351 | -119.86128 | 12101 ft | 186 kts | 339° |
| 2026-04-19 21:10 | 37.78594 | -119.86625 | 12095 ft | 185 kts | 339° |
| 2026-04-19 21:10 | 37.79824 | -119.87119 | 12103 ft | 185 kts | 340° |
| 2026-04-19 21:10 | 37.81061 | -119.87615 | 12101 ft | 185 kts | 340° |
| 2026-04-19 21:10 | 37.82292 | -119.88110 | 12108 ft | 185 kts | 339° |
| 2026-04-19 21:11 | 37.83524 | -119.88605 | 12107 ft | 186 kts | 339° |
| 2026-04-19 21:11 | 37.84748 | -119.89096 | 12102 ft | 186 kts | 340° |
| 2026-04-19 21:11 | 37.85989 | -119.89595 | 12102 ft | 186 kts | 340° |
| 2026-04-19 21:11 | 37.87238 | -119.90096 | 12108 ft | 185 kts | 339° |
| 2026-04-19 21:12 | 37.88480 | -119.90595 | 12110 ft | 186 kts | 339° |
| 2026-04-19 21:12 | 37.89715 | -119.91094 | 12109 ft | 186 kts | 339° |
| 2026-04-19 21:12 | 37.90950 | -119.91589 | 12105 ft | 186 kts | 339° |
| 2026-04-19 21:12 | 37.92181 | -119.92085 | 12114 ft | 186 kts | 340° |
| 2026-04-19 21:13 | 37.93418 | -119.92584 | 12111 ft | 186 kts | 340° |
| 2026-04-19 21:13 | 37.94666 | -119.93088 | 12114 ft | 186 kts | 340° |
| 2026-04-19 21:13 | 37.95917 | -119.93591 | 12108 ft | 187 kts | 340° |
| 2026-04-19 21:13 | 37.97145 | -119.94085 | 12110 ft | 187 kts | 339° |
| 2026-04-19 21:14 | 37.98395 | -119.94589 | 12111 ft | 187 kts | 339° |
| 2026-04-19 21:14 | 37.99626 | -119.95088 | 12114 ft | 187 kts | 340° |
| 2026-04-19 21:14 | 38.00870 | -119.95589 | 12108 ft | 187 kts | 339° |
| 2026-04-19 21:14 | 38.02105 | -119.96087 | 12110 ft | 186 kts | 339° |
| 2026-04-19 21:15 | 38.03351 | -119.96590 | 12111 ft | 186 kts | 339° |
| 2026-04-19 21:15 | 38.04591 | -119.97091 | 12118 ft | 186 kts | 339° |
| 2026-04-19 21:15 | 38.05826 | -119.97591 | 12117 ft | 186 kts | 339° |
| 2026-04-19 21:15 | 38.07077 | -119.98097 | 12120 ft | 186 kts | 340° |
| 2026-04-19 21:16 | 38.08315 | -119.98598 | 12114 ft | 187 kts | 339° |
| 2026-04-19 21:16 | 38.09581 | -119.99110 | 12113 ft | 187 kts | 339° |
| 2026-04-19 21:16 | 38.10837 | -119.99617 | 12105 ft | 187 kts | 339° |
| 2026-04-19 21:16 | 38.12046 | -120.00107 | 12102 ft | 187 kts | 340° |
| 2026-04-19 21:17 | 38.13286 | -120.00608 | 12101 ft | 186 kts | 339° |
| 2026-04-19 21:17 | 38.14518 | -120.01108 | 12107 ft | 185 kts | 339° |
| 2026-04-19 21:17 | 38.15763 | -120.01613 | 12113 ft | 185 kts | 339° |
| 2026-04-19 21:17 | 38.17013 | -120.02119 | 12109 ft | 186 kts | 339° |
| 2026-04-19 21:18 | 38.18261 | -120.02627 | 12102 ft | 186 kts | 339° |
| 2026-04-19 21:18 | 38.19490 | -120.03125 | 12104 ft | 186 kts | 339° |
| 2026-04-19 21:18 | 38.20746 | -120.03635 | 12105 ft | 186 kts | 339° |
| 2026-04-19 21:18 | 38.21980 | -120.04137 | 12104 ft | 185 kts | 340° |
| 2026-04-19 21:19 | 38.23231 | -120.04645 | 12107 ft | 185 kts | 340° |
| 2026-04-19 21:19 | 38.24450 | -120.05138 | 12114 ft | 184 kts | 339° |
| 2026-04-19 21:19 | 38.25686 | -120.05642 | 12116 ft | 185 kts | 339° |
| 2026-04-19 21:19 | 38.26923 | -120.06145 | 12116 ft | 185 kts | 339° |
| 2026-04-19 21:20 | 38.28153 | -120.06645 | 12112 ft | 186 kts | 339° |
| 2026-04-19 21:20 | 38.29376 | -120.07207 | 12111 ft | 185 kts | 335° |
| 2026-04-19 21:20 | 38.30582 | -120.07841 | 12106 ft | 185 kts | 334° |
| 2026-04-19 21:20 | 38.31772 | -120.08472 | 12112 ft | 184 kts | 334° |
| 2026-04-19 21:21 | 38.32964 | -120.09107 | 12114 ft | 184 kts | 334° |
| 2026-04-19 21:21 | 38.34155 | -120.09740 | 12113 ft | 185 kts | 333° |
| 2026-04-19 21:21 | 38.35369 | -120.10386 | 12114 ft | 185 kts | 334° |
| 2026-04-19 21:21 | 38.36559 | -120.11018 | 12113 ft | 185 kts | 334° |
| 2026-04-19 21:22 | 38.37770 | -120.11660 | 12108 ft | 185 kts | 334° |
| 2026-04-19 21:22 | 38.38956 | -120.12290 | 12115 ft | 184 kts | 334° |
| 2026-04-19 21:22 | 38.40168 | -120.12935 | 12108 ft | 185 kts | 334° |
| 2026-04-19 21:22 | 38.41357 | -120.13567 | 12101 ft | 186 kts | 334° |
| 2026-04-19 21:23 | 38.42551 | -120.14201 | 12104 ft | 185 kts | 333° |
| 2026-04-19 21:23 | 38.43744 | -120.14835 | 12099 ft | 185 kts | 333° |
| 2026-04-19 21:23 | 38.44934 | -120.15469 | 12101 ft | 184 kts | 333° |
| 2026-04-19 21:23 | 38.46113 | -120.16097 | 12106 ft | 183 kts | 334° |
| 2026-04-19 21:24 | 38.47298 | -120.16729 | 12106 ft | 183 kts | 334° |
| 2026-04-19 21:24 | 38.48484 | -120.17361 | 12101 ft | 183 kts | 333° |
| 2026-04-19 21:24 | 38.49665 | -120.17990 | 12099 ft | 183 kts | 334° |
| 2026-04-19 21:24 | 38.50842 | -120.18617 | 12109 ft | 182 kts | 334° |
| 2026-04-19 21:25 | 38.52008 | -120.19240 | 12109 ft | 183 kts | 333° |
| 2026-04-19 21:25 | 38.53278 | -120.19498 | 12086 ft | 185 kts | 11° |
| 2026-04-19 21:25 | 38.54499 | -120.19016 | 12094 ft | 183 kts | 22° |
| 2026-04-19 21:25 | 38.55708 | -120.18458 | 12097 ft | 183 kts | 22° |
| 2026-04-19 21:26 | 38.56905 | -120.17896 | 12108 ft | 183 kts | 22° |
| 2026-04-19 21:26 | 38.58109 | -120.17338 | 12103 ft | 184 kts | 22° |
| 2026-04-19 21:26 | 38.59320 | -120.16773 | 12101 ft | 184 kts | 22° |
| 2026-04-19 21:26 | 38.60538 | -120.16203 | 12102 ft | 185 kts | 22° |
| 2026-04-19 21:27 | 38.61756 | -120.15638 | 12102 ft | 185 kts | 22° |
| 2026-04-19 21:27 | 38.62969 | -120.15068 | 12098 ft | 185 kts | 22° |
| 2026-04-19 21:27 | 38.64177 | -120.14503 | 12102 ft | 185 kts | 22° |
| 2026-04-19 21:27 | 38.65395 | -120.13934 | 12106 ft | 185 kts | 22° |
| 2026-04-19 21:28 | 38.66610 | -120.13368 | 12102 ft | 185 kts | 22° |
| 2026-04-19 21:28 | 38.67818 | -120.12804 | 12104 ft | 185 kts | 22° |
| 2026-04-19 21:28 | 38.69031 | -120.12236 | 12105 ft | 185 kts | 22° |
| 2026-04-19 21:28 | 38.70244 | -120.11667 | 12106 ft | 185 kts | 22° |
| 2026-04-19 21:29 | 38.71458 | -120.11100 | 12111 ft | 184 kts | 22° |
| 2026-04-19 21:29 | 38.72659 | -120.10535 | 12110 ft | 184 kts | 22° |
| 2026-04-19 21:29 | 38.73881 | -120.09959 | 12111 ft | 184 kts | 22° |
| 2026-04-19 21:29 | 38.75078 | -120.09393 | 12112 ft | 184 kts | 22° |
| 2026-04-19 21:30 | 38.76295 | -120.08816 | 12116 ft | 184 kts | 22° |
| 2026-04-19 21:30 | 38.77488 | -120.08247 | 12118 ft | 184 kts | 22° |
| 2026-04-19 21:30 | 38.78692 | -120.07670 | 12123 ft | 183 kts | 22° |
| 2026-04-19 21:30 | 38.79890 | -120.07099 | 12124 ft | 184 kts | 22° |
| 2026-04-19 21:31 | 38.81116 | -120.06633 | 12120 ft | 185 kts | 10° |
| 2026-04-19 21:31 | 38.82394 | -120.06388 | 12116 ft | 186 kts | 8° |
| 2026-04-19 21:31 | 38.83687 | -120.06151 | 12108 ft | 187 kts | 8° |
| 2026-04-19 21:31 | 38.84978 | -120.05915 | 12103 ft | 187 kts | 8° |
| 2026-04-19 21:32 | 38.86272 | -120.05679 | 12103 ft | 187 kts | 8° |
| 2026-04-19 21:32 | 38.87556 | -120.05446 | 12103 ft | 187 kts | 8° |
| 2026-04-19 21:32 | 38.88860 | -120.05205 | 12102 ft | 187 kts | 9° |
| 2026-04-19 21:32 | 38.90132 | -120.05301 | 12103 ft | 185 kts | 341° |
| 2026-04-19 21:33 | 38.91363 | -120.05817 | 12095 ft | 186 kts | 338° |
| 2026-04-19 21:33 | 38.92595 | -120.06361 | 12089 ft | 186 kts | 338° |
| 2026-04-19 21:33 | 38.93821 | -120.06902 | 12088 ft | 185 kts | 338° |
| 2026-04-19 21:33 | 38.95034 | -120.07439 | 12093 ft | 185 kts | 337° |
| 2026-04-19 21:34 | 38.96262 | -120.07982 | 12089 ft | 186 kts | 338° |
| 2026-04-19 21:34 | 38.97495 | -120.08527 | 12089 ft | 186 kts | 338° |
| 2026-04-19 21:34 | 38.98717 | -120.09071 | 12047 ft | 189 kts | 338° |
| 2026-04-19 21:34 | 38.99994 | -120.09644 | 11927 ft | 195 kts | 338° |
| 2026-04-19 21:35 | 39.01296 | -120.10228 | 11802 ft | 199 kts | 338° |
| 2026-04-19 21:35 | 39.02624 | -120.10834 | 11683 ft | 203 kts | 338° |
| 2026-04-19 21:35 | 39.03982 | -120.11455 | 11563 ft | 205 kts | 338° |
| 2026-04-19 21:35 | 39.05329 | -120.12078 | 11439 ft | 206 kts | 338° |
| 2026-04-19 21:36 | 39.06631 | -120.12678 | 11323 ft | 207 kts | 338° |
| 2026-04-19 21:36 | 39.07995 | -120.13311 | 11204 ft | 208 kts | 338° |
| 2026-04-19 21:36 | 39.09365 | -120.13947 | 11082 ft | 208 kts | 338° |
| 2026-04-19 21:36 | 39.10736 | -120.14587 | 10958 ft | 208 kts | 338° |
| 2026-04-19 21:37 | 39.12099 | -120.15228 | 10828 ft | 209 kts | 338° |
| 2026-04-19 21:37 | 39.13488 | -120.15887 | 10699 ft | 208 kts | 338° |
| 2026-04-19 21:37 | 39.14851 | -120.16532 | 10572 ft | 208 kts | 338° |
| 2026-04-19 21:37 | 39.16207 | -120.17178 | 10447 ft | 208 kts | 338° |
| 2026-04-19 21:38 | 39.17563 | -120.17826 | 10322 ft | 208 kts | 338° |
| 2026-04-19 21:38 | 39.18936 | -120.18481 | 10139 ft | 212 kts | 338° |
| 2026-04-19 21:38 | 39.20330 | -120.19153 | 9896 ft | 214 kts | 338° |
| 2026-04-19 21:38 | 39.21731 | -120.19840 | 9546 ft | 216 kts | 338° |
| 2026-04-19 21:39 | 39.23148 | -120.20543 | 9177 ft | 215 kts | 338° |
| 2026-04-19 21:39 | 39.24483 | -120.21208 | 8796 ft | 196 kts | 340° |
| 2026-04-19 21:39 | 39.25754 | -120.21281 | 8408 ft | 179 kts | 9° |
| 2026-04-19 21:39 | 39.27000 | -120.21054 | 8078 ft | 181 kts | 11° |
| 2026-04-19 21:40 | 39.29329 | -120.20606 | 7714 ft | 147 kts | 10° |
| 2026-04-19 21:40 | 39.30242 | -120.20441 | 7403 ft | 125 kts | 11° |
| 2026-04-19 21:40 | 39.31020 | -120.20177 | 7127 ft | 109 kts | 27° |
| 2026-04-19 21:41 | 39.31394 | -120.19967 | 7031 ft | 105 kts | 28° |
| 2026-04-19 21:41 | 39.31990 | -120.19643 | 6918 ft | 100 kts | 29° |
| 2026-04-19 21:41 | 39.32598 | -120.19214 | 6810 ft | 101 kts | 39° |
| 2026-04-19 21:41 | 39.33126 | -120.18627 | 6738 ft | 96 kts | 47° |
| 2026-04-19 21:42 | 39.33546 | -120.18011 | 6548 ft | 86 kts | 74° |
| 2026-04-19 21:42 | 39.33433 | -120.17346 | 6355 ft | 78 kts | 122° |
| 2026-04-19 21:42 | 39.33155 | -120.16752 | 6230 ft | 78 kts | 121° |
| 2026-04-19 21:42 | 39.32884 | -120.16159 | 6125 ft | 75 kts | 121° |
| 2026-04-19 21:43 | 39.32620 | -120.15569 | 6015 ft | 76 kts | 120° |
| 2026-04-19 21:43 | 39.32361 | -120.14993 | 5912 ft | 65 kts | 122° |
| 2026-04-19 21:43 | 39.32225 | -120.14693 | 5909 ft | 2 kts | 120° |
| 2026-04-19 21:43 | 39.32195 | -120.14630 | 5909 ft | 12 kts | 128° |
| 2026-04-19 21:44 | 39.32119 | -120.14580 | 5909 ft | 9 kts | 159° |
| 2026-04-19 21:44 | 39.32062 | -120.14557 | 5909 ft | 7 kts | 202° |
| 2026-04-19 21:44 | 39.32027 | -120.14555 | 5909 ft | 6 kts | 128° |
| 2026-04-19 21:44 | 39.32001 | -120.14497 | 5909 ft | 7 kts | 121° |
| 2026-04-19 21:45 | 39.31965 | -120.14466 | 5909 ft | 4 kts | 209° |
| 2026-04-19 21:45 | 39.31957 | -120.14472 | 5909 ft | 0 kts | 211° |